This is the latest recevied weather packets stored in our database for station/object AB8KN-2. If no packets are shown the sender has not sent any weather packets the latest 10 day(s).
| Time | Temp. | Humidity | Pressure | Rain* | Wind** | Luminosity | Snow |
|---|---|---|---|---|---|---|---|
| 1777876218 | 10.56° C | 67% | 1011.5 hPa | 0 mm | - | 0 W/m² | - |
| 1777875015 | 10.56° C | 67% | 1011.7 hPa | 0 mm | - | 0 W/m² | - |
| 1777873816 | 10.56° C | 68% | 1011.9 hPa | 0 mm | - | 0 W/m² | - |
| 1777866617 | 10.56° C | 68% | 1012.8 hPa | 0 mm | - | 0 W/m² | - |
| 1777863016 | 10.56° C | 69% | 1012.9 hPa | 0 mm | - | 0 W/m² | - |
| 1777862416 | 10° C | 69% | 1013 hPa | 0 mm | - | 0 W/m² | - |
| 1777860616 | 10° C | 68% | 1013.3 hPa | 0 mm | - | 0 W/m² | - |
| 1777860016 | 10° C | 68% | 1013.1 hPa | 0 mm | - | 0 W/m² | - |
| 1777859417 | 10° C | 68% | 1012.9 hPa | 0 mm | - | 0 W/m² | - |
| 1777858817 | 10.56° C | 68% | 1012.9 hPa | 0 mm | - | 0 W/m² | - |
| 1777858217 | 10.56° C | 66% | 1013.2 hPa | 0 mm | - | 0 W/m² | - |
| 1777851636 | 11.11° C | 65% | 1013.6 hPa | 0 mm | - | 19 W/m² | - |
| 1777850416 | 12.22° C | 54% | 1014.1 hPa | 0 mm | - | 37 W/m² | - |
| 1777849816 | 12.78° C | 52% | 1014 hPa | 0 mm | - | 42 W/m² | - |
| 1777847417 | 15° C | 38% | 1013.5 hPa | 0 mm | - | 91 W/m² | - |
| 1777845018 | 16.11° C | 37% | 1013.8 hPa | 0 mm | - | 185 W/m² | - |
| 1777844418 | 16.11° C | 37% | 1013.8 hPa | 0 mm | - | 225 W/m² | - |
| 1777842016 | 16.11° C | 36% | 1014.1 hPa | 0 mm | - | 284 W/m² | - |
| 1777840816 | 16.67° C | 35% | 1014.6 hPa | 0 mm | - | 463 W/m² | - |
| 1777822858 | 14.44° C | 42% | 1018.9 hPa | 0 mm | - | 812 W/m² | - |
| 1777819216 | 12.78° C | 46% | 1019.3 hPa | 0 mm | - | 667 W/m² | - |
| 1777818016 | 12.22° C | 48% | 1019.4 hPa | 0 mm | - | 607 W/m² | - |
| 1777816217 | 10.56° C | 51% | 1019.6 hPa | 0 mm | - | 509 W/m² | - |
| 1777812018 | 7.22° C | 62% | 1019.6 hPa | 0 mm | - | 272 W/m² | - |
| 1777809018 | 1.67° C | 84% | 1018.5 hPa | 0 mm | - | 48 W/m² | - |
* Rain latest hour (hover to see other rain measurements)
** Current wind speed in m/s (hover to see current wind gust speed)